sensor_id;sensor_type;location;lat;lon;timestamp;P1;durP1;ratioP1;P2;durP2;ratioP2
26223;SDS011;14820;48.682;8.890;2022-11-20T00:00:25;5.07;;;3.35;;
26223;SDS011;14820;48.682;8.890;2022-11-20T00:02:51;8.55;;;4.35;;
26223;SDS011;14820;48.682;8.890;2022-11-20T00:05:17;5.60;;;3.72;;
26223;SDS011;14820;48.682;8.890;2022-11-20T00:07:43;4.97;;;3.80;;
26223;SDS011;14820;48.682;8.890;2022-11-20T00:10:09;6.10;;;4.00;;
26223;SDS011;14820;48.682;8.890;2022-11-20T00:12:34;5.38;;;3.88;;
26223;SDS011;14820;48.682;8.890;2022-11-20T00:15:00;5.60;;;3.92;;
26223;SDS011;14820;48.682;8.890;2022-11-20T00:17:26;5.18;;;4.15;;
26223;SDS011;14820;48.682;8.890;2022-11-20T00:19:51;5.90;;;4.00;;
26223;SDS011;14820;48.682;8.890;2022-11-20T00:22:17;9.48;;;4.60;;
26223;SDS011;14820;48.682;8.890;2022-11-20T00:24:43;11.43;;;6.35;;
26223;SDS011;14820;48.682;8.890;2022-11-20T00:27:08;10.85;;;5.88;;
26223;SDS011;14820;48.682;8.890;2022-11-20T00:29:34;13.82;;;6.18;;
26223;SDS011;14820;48.682;8.890;2022-11-20T00:31:59;9.55;;;5.63;;
26223;SDS011;14820;48.682;8.890;2022-11-20T00:34:25;7.30;;;4.78;;
26223;SDS011;14820;48.682;8.890;2022-11-20T00:36:51;8.73;;;5.15;;
26223;SDS011;14820;48.682;8.890;2022-11-20T00:39:16;7.45;;;4.68;;
26223;SDS011;14820;48.682;8.890;2022-11-20T00:41:42;6.82;;;4.72;;
26223;SDS011;14820;48.682;8.890;2022-11-20T00:44:07;8.82;;;4.75;;
26223;SDS011;14820;48.682;8.890;2022-11-20T00:46:33;8.23;;;4.72;;
26223;SDS011;14820;48.682;8.890;2022-11-20T00:48:59;7.47;;;4.68;;
26223;SDS011;14820;48.682;8.890;2022-11-20T00:51:26;9.15;;;5.90;;
26223;SDS011;14820;48.682;8.890;2022-11-20T00:53:54;10.45;;;6.68;;
26223;SDS011;14820;48.682;8.890;2022-11-20T00:56:20;10.75;;;6.72;;
26223;SDS011;14820;48.682;8.890;2022-11-20T00:58:47;15.00;;;6.68;;
26223;SDS011;14820;48.682;8.890;2022-11-20T01:01:14;11.52;;;6.28;;
26223;SDS011;14820;48.682;8.890;2022-11-20T01:03:45;9.63;;;5.82;;
26223;SDS011;14820;48.682;8.890;2022-11-20T01:06:13;11.30;;;5.65;;
26223;SDS011;14820;48.682;8.890;2022-11-20T01:08:41;8.27;;;5.25;;
26223;SDS011;14820;48.682;8.890;2022-11-20T01:11:12;7.28;;;4.78;;
26223;SDS011;14820;48.682;8.890;2022-11-20T01:13:47;7.95;;;4.40;;
26223;SDS011;14820;48.682;8.890;2022-11-20T01:16:17;5.80;;;4.07;;
26223;SDS011;14820;48.682;8.890;2022-11-20T01:18:47;6.25;;;4.22;;
26223;SDS011;14820;48.682;8.890;2022-11-20T01:21:18;7.90;;;4.38;;
26223;SDS011;14820;48.682;8.890;2022-11-20T01:23:44;6.45;;;4.43;;
26223;SDS011;14820;48.682;8.890;2022-11-20T01:26:16;8.90;;;4.85;;
26223;SDS011;14820;48.682;8.890;2022-11-20T01:28:43;8.80;;;5.03;;
26223;SDS011;14820;48.682;8.890;2022-11-20T01:31:20;6.88;;;4.65;;
26223;SDS011;14820;48.682;8.890;2022-11-20T01:33:48;5.30;;;3.75;;
26223;SDS011;14820;48.682;8.890;2022-11-20T01:36:15;6.85;;;3.67;;
26223;SDS011;14820;48.682;8.890;2022-11-20T01:38:42;6.57;;;3.60;;
26223;SDS011;14820;48.682;8.890;2022-11-20T01:41:09;9.68;;;4.15;;
26223;SDS011;14820;48.682;8.890;2022-11-20T01:43:35;6.55;;;3.78;;
26223;SDS011;14820;48.682;8.890;2022-11-20T01:46:17;5.65;;;4.15;;
26223;SDS011;14820;48.682;8.890;2022-11-20T01:51:26;5.72;;;3.70;;
26223;SDS011;14820;48.682;8.890;2022-11-20T01:53:56;6.22;;;3.38;;
26223;SDS011;14820;48.682;8.890;2022-11-20T01:56:24;5.43;;;3.58;;
26223;SDS011;14820;48.682;8.890;2022-11-20T01:58:53;4.95;;;3.42;;
26223;SDS011;14820;48.682;8.890;2022-11-20T02:01:23;8.85;;;3.53;;
26223;SDS011;14820;48.682;8.890;2022-11-20T02:03:49;8.63;;;3.63;;
26223;SDS011;14820;48.682;8.890;2022-11-20T02:09:24;6.03;;;3.05;;
26223;SDS011;14820;48.682;8.890;2022-11-20T02:11:49;4.82;;;3.30;;
26223;SDS011;14820;48.682;8.890;2022-11-20T02:14:15;11.27;;;3.13;;
26223;SDS011;14820;48.682;8.890;2022-11-20T02:16:43;6.45;;;3.33;;
26223;SDS011;14820;48.682;8.890;2022-11-20T02:19:32;5.55;;;3.25;;
26223;SDS011;14820;48.682;8.890;2022-11-20T02:22:02;3.15;;;2.80;;
26223;SDS011;14820;48.682;8.890;2022-11-20T02:24:39;4.55;;;2.80;;
26223;SDS011;14820;48.682;8.890;2022-11-20T02:27:07;6.95;;;2.92;;
26223;SDS011;14820;48.682;8.890;2022-11-20T02:29:52;5.30;;;2.88;;
26223;SDS011;14820;48.682;8.890;2022-11-20T02:32:39;5.03;;;3.13;;
26223;SDS011;14820;48.682;8.890;2022-11-20T02:37:36;5.00;;;2.83;;
26223;SDS011;14820;48.682;8.890;2022-11-20T02:40:04;4.30;;;3.05;;
26223;SDS011;14820;48.682;8.890;2022-11-20T02:42:30;4.00;;;3.08;;
26223;SDS011;14820;48.682;8.890;2022-11-20T02:44:56;5.22;;;3.25;;
26223;SDS011;14820;48.682;8.890;2022-11-20T02:47:22;5.72;;;3.28;;
26223;SDS011;14820;48.682;8.890;2022-11-20T02:49:47;5.40;;;3.58;;
26223;SDS011;14820;48.682;8.890;2022-11-20T02:52:13;6.63;;;3.75;;
26223;SDS011;14820;48.682;8.890;2022-11-20T02:54:38;9.02;;;4.18;;
26223;SDS011;14820;48.682;8.890;2022-11-20T02:57:04;7.03;;;3.88;;
26223;SDS011;14820;48.682;8.890;2022-11-20T02:59:30;5.10;;;3.55;;
26223;SDS011;14820;48.682;8.890;2022-11-20T03:01:55;12.68;;;4.00;;
26223;SDS011;14820;48.682;8.890;2022-11-20T03:04:21;4.55;;;3.40;;
26223;SDS011;14820;48.682;8.890;2022-11-20T03:06:46;4.15;;;3.40;;
26223;SDS011;14820;48.682;8.890;2022-11-20T03:09:12;6.18;;;3.45;;
26223;SDS011;14820;48.682;8.890;2022-11-20T03:11:38;5.50;;;3.90;;
26223;SDS011;14820;48.682;8.890;2022-11-20T03:14:04;6.40;;;4.03;;
26223;SDS011;14820;48.682;8.890;2022-11-20T03:16:30;4.57;;;3.67;;
26223;SDS011;14820;48.682;8.890;2022-11-20T03:18:57;6.20;;;3.65;;
26223;SDS011;14820;48.682;8.890;2022-11-20T03:21:23;5.38;;;4.30;;
26223;SDS011;14820;48.682;8.890;2022-11-20T03:23:48;5.57;;;4.30;;
26223;SDS011;14820;48.682;8.890;2022-11-20T03:26:18;6.45;;;4.18;;
26223;SDS011;14820;48.682;8.890;2022-11-20T03:28:49;6.43;;;4.30;;
26223;SDS011;14820;48.682;8.890;2022-11-20T03:31:16;5.53;;;4.10;;
26223;SDS011;14820;48.682;8.890;2022-11-20T03:33:44;6.32;;;3.58;;
26223;SDS011;14820;48.682;8.890;2022-11-20T03:36:11;8.35;;;4.43;;
26223;SDS011;14820;48.682;8.890;2022-11-20T03:38:39;9.93;;;4.15;;
26223;SDS011;14820;48.682;8.890;2022-11-20T03:41:07;8.38;;;3.55;;
26223;SDS011;14820;48.682;8.890;2022-11-20T03:43:34;5.75;;;3.55;;
26223;SDS011;14820;48.682;8.890;2022-11-20T03:46:00;6.72;;;3.83;;
26223;SDS011;14820;48.682;8.890;2022-11-20T03:48:26;4.68;;;3.35;;
26223;SDS011;14820;48.682;8.890;2022-11-20T03:51:16;7.18;;;4.22;;
26223;SDS011;14820;48.682;8.890;2022-11-20T03:53:44;6.63;;;4.15;;
26223;SDS011;14820;48.682;8.890;2022-11-20T03:56:11;6.75;;;4.45;;
26223;SDS011;14820;48.682;8.890;2022-11-20T03:58:40;6.18;;;4.20;;
26223;SDS011;14820;48.682;8.890;2022-11-20T04:01:07;6.40;;;4.07;;
26223;SDS011;14820;48.682;8.890;2022-11-20T04:03:43;7.15;;;4.50;;
26223;SDS011;14820;48.682;8.890;2022-11-20T04:06:13;6.63;;;3.97;;
26223;SDS011;14820;48.682;8.890;2022-11-20T04:08:41;7.45;;;4.65;;
26223;SDS011;14820;48.682;8.890;2022-11-20T04:11:11;4.93;;;3.85;;
26223;SDS011;14820;48.682;8.890;2022-11-20T04:13:41;6.38;;;3.97;;
26223;SDS011;14820;48.682;8.890;2022-11-20T04:16:08;5.75;;;4.00;;
26223;SDS011;14820;48.682;8.890;2022-11-20T04:18:35;6.80;;;3.85;;
26223;SDS011;14820;48.682;8.890;2022-11-20T04:21:01;6.07;;;3.97;;
26223;SDS011;14820;48.682;8.890;2022-11-20T04:23:27;7.13;;;3.92;;
26223;SDS011;14820;48.682;8.890;2022-11-20T04:25:53;5.43;;;4.05;;
26223;SDS011;14820;48.682;8.890;2022-11-20T04:28:19;5.00;;;4.10;;
26223;SDS011;14820;48.682;8.890;2022-11-20T04:30:45;8.00;;;4.20;;
26223;SDS011;14820;48.682;8.890;2022-11-20T04:33:10;7.07;;;3.70;;
26223;SDS011;14820;48.682;8.890;2022-11-20T04:35:36;5.07;;;3.92;;
26223;SDS011;14820;48.682;8.890;2022-11-20T04:38:03;9.07;;;4.22;;
26223;SDS011;14820;48.682;8.890;2022-11-20T04:40:29;7.80;;;4.10;;
26223;SDS011;14820;48.682;8.890;2022-11-20T04:42:55;4.68;;;3.67;;
26223;SDS011;14820;48.682;8.890;2022-11-20T04:45:24;9.25;;;3.90;;
26223;SDS011;14820;48.682;8.890;2022-11-20T04:47:50;7.10;;;4.10;;
26223;SDS011;14820;48.682;8.890;2022-11-20T04:50:15;4.82;;;3.80;;
26223;SDS011;14820;48.682;8.890;2022-11-20T04:52:41;5.22;;;3.95;;
26223;SDS011;14820;48.682;8.890;2022-11-20T04:55:07;7.75;;;4.40;;
26223;SDS011;14820;48.682;8.890;2022-11-20T04:57:33;7.35;;;4.63;;
26223;SDS011;14820;48.682;8.890;2022-11-20T04:59:58;6.03;;;4.20;;
26223;SDS011;14820;48.682;8.890;2022-11-20T05:02:24;6.13;;;4.13;;
26223;SDS011;14820;48.682;8.890;2022-11-20T05:04:49;7.72;;;4.13;;
26223;SDS011;14820;48.682;8.890;2022-11-20T05:07:15;5.03;;;3.75;;
26223;SDS011;14820;48.682;8.890;2022-11-20T05:09:41;5.28;;;4.00;;
26223;SDS011;14820;48.682;8.890;2022-11-20T05:12:07;7.00;;;4.45;;
26223;SDS011;14820;48.682;8.890;2022-11-20T05:14:34;6.90;;;4.18;;
26223;SDS011;14820;48.682;8.890;2022-11-20T05:17:00;5.78;;;4.43;;
26223;SDS011;14820;48.682;8.890;2022-11-20T05:19:25;6.20;;;4.00;;
26223;SDS011;14820;48.682;8.890;2022-11-20T05:21:51;7.25;;;4.20;;
26223;SDS011;14820;48.682;8.890;2022-11-20T05:24:17;6.30;;;4.15;;
26223;SDS011;14820;48.682;8.890;2022-11-20T05:26:42;7.45;;;4.43;;
26223;SDS011;14820;48.682;8.890;2022-11-20T05:29:11;6.40;;;4.35;;
26223;SDS011;14820;48.682;8.890;2022-11-20T05:31:38;5.45;;;4.20;;
26223;SDS011;14820;48.682;8.890;2022-11-20T05:34:05;8.65;;;4.53;;
26223;SDS011;14820;48.682;8.890;2022-11-20T05:36:31;7.28;;;4.15;;
26223;SDS011;14820;48.682;8.890;2022-11-20T05:38:57;4.97;;;4.00;;
26223;SDS011;14820;48.682;8.890;2022-11-20T05:41:22;5.68;;;3.92;;
26223;SDS011;14820;48.682;8.890;2022-11-20T05:43:48;5.82;;;4.18;;
26223;SDS011;14820;48.682;8.890;2022-11-20T05:46:15;5.30;;;4.28;;
26223;SDS011;14820;48.682;8.890;2022-11-20T05:48:43;5.72;;;3.70;;
26223;SDS011;14820;48.682;8.890;2022-11-20T05:51:10;5.72;;;3.85;;
26223;SDS011;14820;48.682;8.890;2022-11-20T05:53:37;6.25;;;3.50;;
26223;SDS011;14820;48.682;8.890;2022-11-20T05:56:04;4.90;;;3.05;;
26223;SDS011;14820;48.682;8.890;2022-11-20T05:58:32;5.30;;;2.92;;
26223;SDS011;14820;48.682;8.890;2022-11-20T06:03:32;4.45;;;2.80;;
26223;SDS011;14820;48.682;8.890;2022-11-20T06:06:00;3.40;;;2.40;;
26223;SDS011;14820;48.682;8.890;2022-11-20T06:08:27;4.28;;;2.28;;
26223;SDS011;14820;48.682;8.890;2022-11-20T06:10:53;3.25;;;2.20;;
26223;SDS011;14820;48.682;8.890;2022-11-20T06:13:19;4.32;;;2.47;;
26223;SDS011;14820;48.682;8.890;2022-11-20T06:15:51;3.47;;;2.13;;
26223;SDS011;14820;48.682;8.890;2022-11-20T06:18:18;2.75;;;2.00;;
26223;SDS011;14820;48.682;8.890;2022-11-20T06:20:44;3.92;;;2.38;;
26223;SDS011;14820;48.682;8.890;2022-11-20T06:23:10;2.38;;;1.92;;
26223;SDS011;14820;48.682;8.890;2022-11-20T06:25:40;4.28;;;2.17;;
26223;SDS011;14820;48.682;8.890;2022-11-20T06:28:07;4.28;;;2.50;;
26223;SDS011;14820;48.682;8.890;2022-11-20T06:30:33;3.50;;;2.25;;
26223;SDS011;14820;48.682;8.890;2022-11-20T06:32:59;4.80;;;2.17;;
26223;SDS011;14820;48.682;8.890;2022-11-20T06:35:25;4.75;;;2.78;;
26223;SDS011;14820;48.682;8.890;2022-11-20T06:37:51;5.10;;;2.90;;
26223;SDS011;14820;48.682;8.890;2022-11-20T06:40:16;3.95;;;2.70;;
26223;SDS011;14820;48.682;8.890;2022-11-20T06:42:42;4.70;;;2.40;;
26223;SDS011;14820;48.682;8.890;2022-11-20T06:45:08;4.20;;;2.40;;
26223;SDS011;14820;48.682;8.890;2022-11-20T06:47:34;7.03;;;3.05;;
26223;SDS011;14820;48.682;8.890;2022-11-20T06:50:00;3.80;;;2.95;;
26223;SDS011;14820;48.682;8.890;2022-11-20T06:52:25;5.47;;;2.97;;
26223;SDS011;14820;48.682;8.890;2022-11-20T06:54:51;3.22;;;2.45;;
26223;SDS011;14820;48.682;8.890;2022-11-20T06:57:17;7.18;;;2.50;;
26223;SDS011;14820;48.682;8.890;2022-11-20T06:59:42;3.88;;;2.40;;
26223;SDS011;14820;48.682;8.890;2022-11-20T07:02:11;4.03;;;2.58;;
26223;SDS011;14820;48.682;8.890;2022-11-20T07:04:37;4.43;;;2.50;;
26223;SDS011;14820;48.682;8.890;2022-11-20T07:07:04;3.22;;;2.08;;
26223;SDS011;14820;48.682;8.890;2022-11-20T07:09:31;4.63;;;2.33;;
26223;SDS011;14820;48.682;8.890;2022-11-20T07:11:57;3.13;;;2.20;;
26223;SDS011;14820;48.682;8.890;2022-11-20T07:14:23;2.92;;;2.15;;
26223;SDS011;14820;48.682;8.890;2022-11-20T07:16:48;3.80;;;2.17;;
26223;SDS011;14820;48.682;8.890;2022-11-20T07:19:14;3.83;;;2.15;;
26223;SDS011;14820;48.682;8.890;2022-11-20T07:21:40;4.63;;;1.92;;
26223;SDS011;14820;48.682;8.890;2022-11-20T07:24:05;3.08;;;2.00;;
26223;SDS011;14820;48.682;8.890;2022-11-20T07:26:31;3.53;;;2.13;;
26223;SDS011;14820;48.682;8.890;2022-11-20T07:28:56;3.42;;;2.40;;
26223;SDS011;14820;48.682;8.890;2022-11-20T07:31:22;3.03;;;2.25;;
26223;SDS011;14820;48.682;8.890;2022-11-20T07:33:48;3.40;;;2.20;;
26223;SDS011;14820;48.682;8.890;2022-11-20T07:36:13;3.15;;;2.10;;
26223;SDS011;14820;48.682;8.890;2022-11-20T07:38:39;3.45;;;2.20;;
26223;SDS011;14820;48.682;8.890;2022-11-20T07:41:04;2.25;;;1.90;;
26223;SDS011;14820;48.682;8.890;2022-11-20T07:43:30;3.50;;;2.28;;
26223;SDS011;14820;48.682;8.890;2022-11-20T07:45:56;4.68;;;1.80;;
26223;SDS011;14820;48.682;8.890;2022-11-20T07:48:23;2.85;;;2.00;;
26223;SDS011;14820;48.682;8.890;2022-11-20T07:50:52;2.78;;;2.08;;
26223;SDS011;14820;48.682;8.890;2022-11-20T07:53:19;3.05;;;2.00;;
26223;SDS011;14820;48.682;8.890;2022-11-20T07:55:46;4.00;;;2.25;;
26223;SDS011;14820;48.682;8.890;2022-11-20T07:58:12;4.32;;;2.63;;
26223;SDS011;14820;48.682;8.890;2022-11-20T08:00:39;2.90;;;2.30;;
26223;SDS011;14820;48.682;8.890;2022-11-20T08:03:05;4.18;;;2.78;;
26223;SDS011;14820;48.682;8.890;2022-11-20T08:05:31;5.90;;;4.78;;
26223;SDS011;14820;48.682;8.890;2022-11-20T08:07:56;4.60;;;3.70;;
26223;SDS011;14820;48.682;8.890;2022-11-20T08:10:22;8.73;;;5.25;;
26223;SDS011;14820;48.682;8.890;2022-11-20T08:12:51;4.68;;;3.75;;
26223;SDS011;14820;48.682;8.890;2022-11-20T08:15:37;6.32;;;3.65;;
26223;SDS011;14820;48.682;8.890;2022-11-20T08:18:10;13.55;;;5.65;;
26223;SDS011;14820;48.682;8.890;2022-11-20T08:20:36;4.65;;;3.45;;
26223;SDS011;14820;48.682;8.890;2022-11-20T08:23:04;5.28;;;3.53;;
26223;SDS011;14820;48.682;8.890;2022-11-20T08:25:31;3.22;;;2.50;;
26223;SDS011;14820;48.682;8.890;2022-11-20T08:27:58;5.70;;;4.22;;
26223;SDS011;14820;48.682;8.890;2022-11-20T08:30:24;5.47;;;3.60;;
26223;SDS011;14820;48.682;8.890;2022-11-20T08:32:50;6.63;;;4.68;;
26223;SDS011;14820;48.682;8.890;2022-11-20T08:35:16;5.22;;;3.10;;
26223;SDS011;14820;48.682;8.890;2022-11-20T08:37:42;3.40;;;2.60;;
26223;SDS011;14820;48.682;8.890;2022-11-20T08:40:11;3.33;;;2.58;;
26223;SDS011;14820;48.682;8.890;2022-11-20T08:42:37;6.75;;;4.30;;
26223;SDS011;14820;48.682;8.890;2022-11-20T08:45:11;9.05;;;5.72;;
26223;SDS011;14820;48.682;8.890;2022-11-20T08:47:37;7.63;;;5.05;;
26223;SDS011;14820;48.682;8.890;2022-11-20T08:50:02;5.18;;;3.20;;
26223;SDS011;14820;48.682;8.890;2022-11-20T08:52:28;4.38;;;2.30;;
26223;SDS011;14820;48.682;8.890;2022-11-20T08:54:54;3.83;;;3.22;;
26223;SDS011;14820;48.682;8.890;2022-11-20T08:57:19;2.88;;;2.50;;
26223;SDS011;14820;48.682;8.890;2022-11-20T08:59:45;3.60;;;2.70;;
26223;SDS011;14820;48.682;8.890;2022-11-20T09:02:11;2.30;;;1.45;;
26223;SDS011;14820;48.682;8.890;2022-11-20T09:04:37;2.13;;;1.63;;
26223;SDS011;14820;48.682;8.890;2022-11-20T09:07:02;1.40;;;1.27;;
26223;SDS011;14820;48.682;8.890;2022-11-20T09:09:28;1.20;;;1.10;;
26223;SDS011;14820;48.682;8.890;2022-11-20T09:11:53;2.15;;;1.60;;
26223;SDS011;14820;48.682;8.890;2022-11-20T09:14:19;1.83;;;1.30;;
26223;SDS011;14820;48.682;8.890;2022-11-20T09:16:46;1.42;;;1.27;;
26223;SDS011;14820;48.682;8.890;2022-11-20T09:19:12;3.67;;;1.70;;
26223;SDS011;14820;48.682;8.890;2022-11-20T09:21:37;1.58;;;1.30;;
26223;SDS011;14820;48.682;8.890;2022-11-20T09:24:04;2.42;;;1.45;;
26223;SDS011;14820;48.682;8.890;2022-11-20T09:26:30;1.33;;;1.10;;
26223;SDS011;14820;48.682;8.890;2022-11-20T09:28:55;3.20;;;1.63;;
26223;SDS011;14820;48.682;8.890;2022-11-20T09:31:22;3.35;;;1.60;;
26223;SDS011;14820;48.682;8.890;2022-11-20T09:33:49;3.38;;;2.17;;
26223;SDS011;14820;48.682;8.890;2022-11-20T09:36:15;6.65;;;3.72;;
26223;SDS011;14820;48.682;8.890;2022-11-20T09:38:43;2.15;;;1.48;;
26223;SDS011;14820;48.682;8.890;2022-11-20T09:41:15;14.77;;;8.68;;
26223;SDS011;14820;48.682;8.890;2022-11-20T09:46:35;3.03;;;1.85;;
26223;SDS011;14820;48.682;8.890;2022-11-20T09:54:32;6.53;;;4.93;;
26223;SDS011;14820;48.682;8.890;2022-11-20T09:57:11;3.78;;;2.95;;
26223;SDS011;14820;48.682;8.890;2022-11-20T09:59:43;4.13;;;2.65;;
26223;SDS011;14820;48.682;8.890;2022-11-20T10:04:43;4.03;;;2.10;;
26223;SDS011;14820;48.682;8.890;2022-11-20T10:07:19;2.40;;;1.80;;
26223;SDS011;14820;48.682;8.890;2022-11-20T10:17:55;6.80;;;5.60;;
26223;SDS011;14820;48.682;8.890;2022-11-20T10:25:39;3.13;;;2.80;;
26223;SDS011;14820;48.682;8.890;2022-11-20T10:28:30;4.15;;;3.30;;
26223;SDS011;14820;48.682;8.890;2022-11-20T10:31:02;5.30;;;3.15;;
26223;SDS011;14820;48.682;8.890;2022-11-20T10:33:31;5.57;;;3.92;;
26223;SDS011;14820;48.682;8.890;2022-11-20T10:36:12;3.17;;;2.40;;
26223;SDS011;14820;48.682;8.890;2022-11-20T10:38:46;3.88;;;2.40;;
26223;SDS011;14820;48.682;8.890;2022-11-20T10:44:00;4.07;;;2.50;;
26223;SDS011;14820;48.682;8.890;2022-11-20T10:46:37;3.67;;;2.50;;
26223;SDS011;14820;48.682;8.890;2022-11-20T10:49:15;3.42;;;2.50;;
26223;SDS011;14820;48.682;8.890;2022-11-20T11:02:56;3.70;;;2.22;;
26223;SDS011;14820;48.682;8.890;2022-11-20T11:08:17;5.53;;;3.38;;
26223;SDS011;14820;48.682;8.890;2022-11-20T11:15:50;4.57;;;1.90;;
26223;SDS011;14820;48.682;8.890;2022-11-20T11:18:23;5.65;;;2.28;;
26223;SDS011;14820;48.682;8.890;2022-11-20T11:20:53;5.35;;;2.70;;
26223;SDS011;14820;48.682;8.890;2022-11-20T11:26:00;9.32;;;3.15;;
26223;SDS011;14820;48.682;8.890;2022-11-20T11:28:27;5.50;;;2.05;;
26223;SDS011;14820;48.682;8.890;2022-11-20T11:30:54;3.17;;;1.92;;
26223;SDS011;14820;48.682;8.890;2022-11-20T11:33:23;7.70;;;3.40;;
26223;SDS011;14820;48.682;8.890;2022-11-20T11:35:51;14.40;;;4.88;;
26223;SDS011;14820;48.682;8.890;2022-11-20T11:38:27;7.07;;;2.80;;
26223;SDS011;14820;48.682;8.890;2022-11-20T11:40:56;6.75;;;3.15;;
26223;SDS011;14820;48.682;8.890;2022-11-20T11:43:24;3.63;;;2.08;;
26223;SDS011;14820;48.682;8.890;2022-11-20T11:46:21;6.28;;;2.78;;
26223;SDS011;14820;48.682;8.890;2022-11-20T11:48:57;3.15;;;1.30;;
26223;SDS011;14820;48.682;8.890;2022-11-20T11:51:38;7.00;;;2.28;;
26223;SDS011;14820;48.682;8.890;2022-11-20T11:54:45;3.35;;;1.40;;
26223;SDS011;14820;48.682;8.890;2022-11-20T11:57:10;3.80;;;1.25;;
26223;SDS011;14820;48.682;8.890;2022-11-20T12:05:24;7.28;;;2.45;;
26223;SDS011;14820;48.682;8.890;2022-11-20T12:08:19;3.63;;;1.95;;
26223;SDS011;14820;48.682;8.890;2022-11-20T12:10:54;4.32;;;1.52;;
26223;SDS011;14820;48.682;8.890;2022-11-20T12:13:30;5.97;;;1.90;;
26223;SDS011;14820;48.682;8.890;2022-11-20T12:16:19;5.32;;;2.00;;
26223;SDS011;14820;48.682;8.890;2022-11-20T12:18:47;8.93;;;3.00;;
26223;SDS011;14820;48.682;8.890;2022-11-20T12:21:19;6.65;;;3.03;;
26223;SDS011;14820;48.682;8.890;2022-11-20T12:35:13;4.50;;;1.80;;
26223;SDS011;14820;48.682;8.890;2022-11-20T12:38:06;3.25;;;1.52;;
26223;SDS011;14820;48.682;8.890;2022-11-20T12:47:25;2.63;;;1.42;;
26223;SDS011;14820;48.682;8.890;2022-11-20T12:50:08;3.45;;;1.65;;
26223;SDS011;14820;48.682;8.890;2022-11-20T13:06:49;7.53;;;2.35;;
26223;SDS011;14820;48.682;8.890;2022-11-20T13:09:17;5.07;;;2.15;;
26223;SDS011;14820;48.682;8.890;2022-11-20T13:17:35;4.40;;;1.85;;
26223;SDS011;14820;48.682;8.890;2022-11-20T13:20:14;4.80;;;1.95;;
26223;SDS011;14820;48.682;8.890;2022-11-20T13:22:42;4.38;;;1.98;;
26223;SDS011;14820;48.682;8.890;2022-11-20T13:27:49;5.10;;;1.73;;
26223;SDS011;14820;48.682;8.890;2022-11-20T13:30:16;2.38;;;1.50;;
26223;SDS011;14820;48.682;8.890;2022-11-20T13:35:41;6.63;;;2.03;;
26223;SDS011;14820;48.682;8.890;2022-11-20T13:38:11;6.22;;;1.83;;
26223;SDS011;14820;48.682;8.890;2022-11-20T13:43:48;5.28;;;1.85;;
26223;SDS011;14820;48.682;8.890;2022-11-20T13:46:14;6.97;;;1.90;;
26223;SDS011;14820;48.682;8.890;2022-11-20T13:48:43;3.90;;;1.67;;
26223;SDS011;14820;48.682;8.890;2022-11-20T13:51:27;2.97;;;1.20;;
26223;SDS011;14820;48.682;8.890;2022-11-20T14:02:29;3.50;;;2.00;;
26223;SDS011;14820;48.682;8.890;2022-11-20T14:04:59;3.75;;;1.98;;
26223;SDS011;14820;48.682;8.890;2022-11-20T14:07:35;2.47;;;1.83;;
26223;SDS011;14820;48.682;8.890;2022-11-20T14:10:03;4.40;;;1.25;;
26223;SDS011;14820;48.682;8.890;2022-11-20T14:12:31;1.98;;;1.20;;
26223;SDS011;14820;48.682;8.890;2022-11-20T14:14:58;6.65;;;1.50;;
26223;SDS011;14820;48.682;8.890;2022-11-20T14:17:33;4.97;;;1.30;;
26223;SDS011;14820;48.682;8.890;2022-11-20T14:20:06;2.95;;;1.30;;
26223;SDS011;14820;48.682;8.890;2022-11-20T14:22:37;3.00;;;1.40;;
26223;SDS011;14820;48.682;8.890;2022-11-20T14:27:44;3.53;;;1.40;;
26223;SDS011;14820;48.682;8.890;2022-11-20T14:30:23;2.70;;;1.20;;
26223;SDS011;14820;48.682;8.890;2022-11-20T14:32:51;2.22;;;1.33;;
26223;SDS011;14820;48.682;8.890;2022-11-20T14:35:27;1.75;;;1.13;;
26223;SDS011;14820;48.682;8.890;2022-11-20T14:37:59;3.08;;;1.20;;
26223;SDS011;14820;48.682;8.890;2022-11-20T14:40:35;5.55;;;1.80;;
26223;SDS011;14820;48.682;8.890;2022-11-20T14:43:01;4.05;;;1.80;;
26223;SDS011;14820;48.682;8.890;2022-11-20T14:45:41;2.13;;;1.38;;
26223;SDS011;14820;48.682;8.890;2022-11-20T14:48:08;2.78;;;1.33;;
26223;SDS011;14820;48.682;8.890;2022-11-20T14:50:37;2.33;;;1.20;;
26223;SDS011;14820;48.682;8.890;2022-11-20T14:53:04;1.98;;;1.10;;
26223;SDS011;14820;48.682;8.890;2022-11-20T14:58:04;3.88;;;2.20;;
26223;SDS011;14820;48.682;8.890;2022-11-20T15:00:32;3.80;;;1.92;;
26223;SDS011;14820;48.682;8.890;2022-11-20T15:02:59;2.50;;;1.67;;
26223;SDS011;14820;48.682;8.890;2022-11-20T15:05:26;3.47;;;1.30;;
26223;SDS011;14820;48.682;8.890;2022-11-20T15:10:37;3.35;;;1.38;;
26223;SDS011;14820;48.682;8.890;2022-11-20T15:13:10;3.78;;;1.40;;
26223;SDS011;14820;48.682;8.890;2022-11-20T15:15:48;3.30;;;1.42;;
26223;SDS011;14820;48.682;8.890;2022-11-20T15:18:20;2.92;;;1.35;;
26223;SDS011;14820;48.682;8.890;2022-11-20T15:20:47;1.85;;;1.35;;
26223;SDS011;14820;48.682;8.890;2022-11-20T15:23:14;3.40;;;1.40;;
26223;SDS011;14820;48.682;8.890;2022-11-20T15:25:41;7.13;;;2.70;;
26223;SDS011;14820;48.682;8.890;2022-11-20T15:28:49;3.05;;;2.03;;
26223;SDS011;14820;48.682;8.890;2022-11-20T15:30:58;6.32;;;2.63;;
26223;SDS011;14820;48.682;8.890;2022-11-20T15:33:24;4.55;;;2.10;;
26223;SDS011;14820;48.682;8.890;2022-11-20T15:35:50;5.22;;;2.45;;
26223;SDS011;14820;48.682;8.890;2022-11-20T15:38:18;6.90;;;3.05;;
26223;SDS011;14820;48.682;8.890;2022-11-20T15:40:44;4.88;;;2.92;;
26223;SDS011;14820;48.682;8.890;2022-11-20T15:43:09;5.30;;;3.30;;
26223;SDS011;14820;48.682;8.890;2022-11-20T15:45:45;6.15;;;3.20;;
26223;SDS011;14820;48.682;8.890;2022-11-20T15:48:16;6.43;;;3.33;;
26223;SDS011;14820;48.682;8.890;2022-11-20T15:50:52;48.83;;;24.92;;
26223;SDS011;14820;48.682;8.890;2022-11-20T15:53:22;35.13;;;21.02;;
26223;SDS011;14820;48.682;8.890;2022-11-20T15:55:48;23.20;;;12.02;;
26223;SDS011;14820;48.682;8.890;2022-11-20T15:58:13;9.00;;;5.10;;
26223;SDS011;14820;48.682;8.890;2022-11-20T16:00:41;5.15;;;3.28;;
26223;SDS011;14820;48.682;8.890;2022-11-20T16:03:09;6.78;;;4.18;;
26223;SDS011;14820;48.682;8.890;2022-11-20T16:05:35;5.85;;;3.22;;
26223;SDS011;14820;48.682;8.890;2022-11-20T16:08:01;5.28;;;3.00;;
26223;SDS011;14820;48.682;8.890;2022-11-20T16:10:27;6.22;;;3.30;;
26223;SDS011;14820;48.682;8.890;2022-11-20T16:12:52;6.03;;;3.42;;
26223;SDS011;14820;48.682;8.890;2022-11-20T16:15:36;4.80;;;3.10;;
26223;SDS011;14820;48.682;8.890;2022-11-20T16:18:11;5.18;;;2.90;;
26223;SDS011;14820;48.682;8.890;2022-11-20T16:20:39;6.53;;;3.40;;
26223;SDS011;14820;48.682;8.890;2022-11-20T16:23:05;7.63;;;3.60;;
26223;SDS011;14820;48.682;8.890;2022-11-20T16:25:31;10.15;;;4.15;;
26223;SDS011;14820;48.682;8.890;2022-11-20T16:27:57;9.00;;;4.93;;
26223;SDS011;14820;48.682;8.890;2022-11-20T16:30:23;8.82;;;4.47;;
26223;SDS011;14820;48.682;8.890;2022-11-20T16:32:49;10.50;;;5.05;;
26223;SDS011;14820;48.682;8.890;2022-11-20T16:35:14;11.45;;;4.70;;
26223;SDS011;14820;48.682;8.890;2022-11-20T16:37:40;8.85;;;4.80;;
26223;SDS011;14820;48.682;8.890;2022-11-20T16:40:08;8.80;;;5.07;;
26223;SDS011;14820;48.682;8.890;2022-11-20T16:42:35;7.80;;;3.42;;
26223;SDS011;14820;48.682;8.890;2022-11-20T16:45:02;3.63;;;2.15;;
26223;SDS011;14820;48.682;8.890;2022-11-20T16:47:32;3.88;;;2.35;;
26223;SDS011;14820;48.682;8.890;2022-11-20T16:49:58;3.35;;;2.20;;
26223;SDS011;14820;48.682;8.890;2022-11-20T16:52:24;5.18;;;2.10;;
26223;SDS011;14820;48.682;8.890;2022-11-20T16:54:52;3.70;;;1.77;;
26223;SDS011;14820;48.682;8.890;2022-11-20T16:57:18;5.10;;;1.90;;
26223;SDS011;14820;48.682;8.890;2022-11-20T16:59:44;3.78;;;2.00;;
26223;SDS011;14820;48.682;8.890;2022-11-20T17:02:09;4.60;;;2.42;;
26223;SDS011;14820;48.682;8.890;2022-11-20T17:04:35;4.53;;;2.00;;